sensor_id;sensor_type;location;lat;lon;timestamp;temperature;humidity
19610;DHT22;9952;47.122;-1.638;2023-03-01T00:01:37;2.80;99.90
19610;DHT22;9952;47.122;-1.638;2023-03-01T00:06:19;2.70;99.90
19610;DHT22;9952;47.122;-1.638;2023-03-01T00:11:17;2.60;99.90
19610;DHT22;9952;47.122;-1.638;2023-03-01T00:15:58;2.60;99.90
19610;DHT22;9952;47.122;-1.638;2023-03-01T00:20:39;2.50;99.90
19610;DHT22;9952;47.122;-1.638;2023-03-01T00:25:20;2.40;99.90
19610;DHT22;9952;47.122;-1.638;2023-03-01T00:30:01;2.30;99.90
19610;DHT22;9952;47.122;-1.638;2023-03-01T00:34:42;2.20;99.90
19610;DHT22;9952;47.122;-1.638;2023-03-01T00:39:22;2.10;99.90
19610;DHT22;9952;47.122;-1.638;2023-03-01T00:44:03;2.10;99.90
19610;DHT22;9952;47.122;-1.638;2023-03-01T00:48:45;2.10;99.90
19610;DHT22;9952;47.122;-1.638;2023-03-01T00:53:26;2.10;99.90
19610;DHT22;9952;47.122;-1.638;2023-03-01T00:58:06;1.90;99.90
19610;DHT22;9952;47.122;-1.638;2023-03-01T01:02:48;1.90;99.90
19610;DHT22;9952;47.122;-1.638;2023-03-01T01:07:30;1.90;99.90
19610;DHT22;9952;47.122;-1.638;2023-03-01T01:12:11;1.90;99.90
19610;DHT22;9952;47.122;-1.638;2023-03-01T01:16:53;1.80;99.90
19610;DHT22;9952;47.122;-1.638;2023-03-01T01:21:33;1.80;99.90
19610;DHT22;9952;47.122;-1.638;2023-03-01T01:26:18;1.80;99.90
19610;DHT22;9952;47.122;-1.638;2023-03-01T01:30:59;1.80;99.90
19610;DHT22;9952;47.122;-1.638;2023-03-01T01:35:40;1.90;99.90
19610;DHT22;9952;47.122;-1.638;2023-03-01T01:40:21;1.80;99.90
19610;DHT22;9952;47.122;-1.638;2023-03-01T01:45:29;1.90;99.90
19610;DHT22;9952;47.122;-1.638;2023-03-01T01:50:16;1.70;99.90
19610;DHT22;9952;47.122;-1.638;2023-03-01T01:55:10;1.70;99.90
19610;DHT22;9952;47.122;-1.638;2023-03-01T01:59:55;1.70;99.90
19610;DHT22;9952;47.122;-1.638;2023-03-01T02:04:37;1.70;99.90
19610;DHT22;9952;47.122;-1.638;2023-03-01T02:09:20;1.80;99.90
19610;DHT22;9952;47.122;-1.638;2023-03-01T02:14:02;1.80;99.90
19610;DHT22;9952;47.122;-1.638;2023-03-01T02:18:43;1.70;99.90
19610;DHT22;9952;47.122;-1.638;2023-03-01T02:23:25;1.70;99.90
19610;DHT22;9952;47.122;-1.638;2023-03-01T02:33:00;1.90;99.90
19610;DHT22;9952;47.122;-1.638;2023-03-01T02:37:45;1.90;99.90
19610;DHT22;9952;47.122;-1.638;2023-03-01T02:42:31;1.90;99.90
19610;DHT22;9952;47.122;-1.638;2023-03-01T02:47:13;1.90;99.90
19610;DHT22;9952;47.122;-1.638;2023-03-01T02:56:58;2.00;99.90
19610;DHT22;9952;47.122;-1.638;2023-03-01T03:01:39;2.00;99.90
19610;DHT22;9952;47.122;-1.638;2023-03-01T03:06:20;2.00;99.90
19610;DHT22;9952;47.122;-1.638;2023-03-01T03:11:01;2.00;99.90
19610;DHT22;9952;47.122;-1.638;2023-03-01T03:15:43;2.00;99.90
19610;DHT22;9952;47.122;-1.638;2023-03-01T03:20:26;2.00;99.90
19610;DHT22;9952;47.122;-1.638;2023-03-01T03:25:08;2.20;99.90
19610;DHT22;9952;47.122;-1.638;2023-03-01T03:29:52;2.30;99.90
19610;DHT22;9952;47.122;-1.638;2023-03-01T03:34:32;2.20;99.90
19610;DHT22;9952;47.122;-1.638;2023-03-01T03:39:13;2.20;99.90
19610;DHT22;9952;47.122;-1.638;2023-03-01T03:43:55;2.20;99.90
19610;DHT22;9952;47.122;-1.638;2023-03-01T03:48:41;2.20;99.90
19610;DHT22;9952;47.122;-1.638;2023-03-01T03:53:24;2.20;99.90
19610;DHT22;9952;47.122;-1.638;2023-03-01T03:58:08;2.20;99.90
19610;DHT22;9952;47.122;-1.638;2023-03-01T04:02:50;2.20;99.90
19610;DHT22;9952;47.122;-1.638;2023-03-01T04:07:37;2.30;99.90
19610;DHT22;9952;47.122;-1.638;2023-03-01T04:12:18;2.10;99.90
19610;DHT22;9952;47.122;-1.638;2023-03-01T04:17:03;2.20;99.90
19610;DHT22;9952;47.122;-1.638;2023-03-01T04:21:45;2.10;99.90
19610;DHT22;9952;47.122;-1.638;2023-03-01T04:26:26;2.20;99.90
19610;DHT22;9952;47.122;-1.638;2023-03-01T04:31:10;2.10;99.90
19610;DHT22;9952;47.122;-1.638;2023-03-01T04:35:54;2.20;99.90
19610;DHT22;9952;47.122;-1.638;2023-03-01T04:40:35;2.20;99.90
19610;DHT22;9952;47.122;-1.638;2023-03-01T04:45:16;2.30;99.90
19610;DHT22;9952;47.122;-1.638;2023-03-01T04:49:57;2.20;99.90
19610;DHT22;9952;47.122;-1.638;2023-03-01T04:54:38;2.30;99.90
19610;DHT22;9952;47.122;-1.638;2023-03-01T04:59:19;2.30;99.90
19610;DHT22;9952;47.122;-1.638;2023-03-01T05:04:02;2.20;99.90
19610;DHT22;9952;47.122;-1.638;2023-03-01T05:08:45;2.20;99.90
19610;DHT22;9952;47.122;-1.638;2023-03-01T05:13:26;2.20;99.90
19610;DHT22;9952;47.122;-1.638;2023-03-01T05:18:09;2.20;99.90
19610;DHT22;9952;47.122;-1.638;2023-03-01T05:22:54;2.20;99.90
19610;DHT22;9952;47.122;-1.638;2023-03-01T05:27:36;2.20;99.90
19610;DHT22;9952;47.122;-1.638;2023-03-01T05:32:17;2.20;99.90
19610;DHT22;9952;47.122;-1.638;2023-03-01T05:36:58;2.20;99.90
19610;DHT22;9952;47.122;-1.638;2023-03-01T05:41:40;2.20;99.90
19610;DHT22;9952;47.122;-1.638;2023-03-01T05:46:21;2.20;99.90
19610;DHT22;9952;47.122;-1.638;2023-03-01T05:51:04;2.20;99.90
19610;DHT22;9952;47.122;-1.638;2023-03-01T05:55:47;2.20;99.90
19610;DHT22;9952;47.122;-1.638;2023-03-01T06:00:28;2.20;99.90
19610;DHT22;9952;47.122;-1.638;2023-03-01T06:05:12;2.10;99.90
19610;DHT22;9952;47.122;-1.638;2023-03-01T06:09:53;2.20;99.90
19610;DHT22;9952;47.122;-1.638;2023-03-01T06:14:33;2.20;99.90
19610;DHT22;9952;47.122;-1.638;2023-03-01T06:19:14;2.20;99.90
19610;DHT22;9952;47.122;-1.638;2023-03-01T06:23:55;2.10;99.90
19610;DHT22;9952;47.122;-1.638;2023-03-01T06:28:36;2.10;99.90
19610;DHT22;9952;47.122;-1.638;2023-03-01T06:33:17;2.10;99.90
19610;DHT22;9952;47.122;-1.638;2023-03-01T06:38:02;2.00;99.90
19610;DHT22;9952;47.122;-1.638;2023-03-01T06:42:48;1.90;99.90
19610;DHT22;9952;47.122;-1.638;2023-03-01T06:47:29;2.00;99.90
19610;DHT22;9952;47.122;-1.638;2023-03-01T06:52:10;2.00;99.90
19610;DHT22;9952;47.122;-1.638;2023-03-01T06:56:51;2.00;99.90
19610;DHT22;9952;47.122;-1.638;2023-03-01T07:01:31;1.90;99.90
19610;DHT22;9952;47.122;-1.638;2023-03-01T07:06:12;2.00;99.90
19610;DHT22;9952;47.122;-1.638;2023-03-01T07:10:57;1.90;99.90
19610;DHT22;9952;47.122;-1.638;2023-03-01T07:15:40;1.90;99.90
19610;DHT22;9952;47.122;-1.638;2023-03-01T07:20:21;1.90;99.90
19610;DHT22;9952;47.122;-1.638;2023-03-01T07:25:05;1.90;99.90
19610;DHT22;9952;47.122;-1.638;2023-03-01T07:29:46;2.00;99.90
19610;DHT22;9952;47.122;-1.638;2023-03-01T07:34:27;2.10;99.90
19610;DHT22;9952;47.122;-1.638;2023-03-01T07:39:09;2.30;99.90
19610;DHT22;9952;47.122;-1.638;2023-03-01T07:43:50;2.40;99.90
19610;DHT22;9952;47.122;-1.638;2023-03-01T07:48:31;2.60;99.90
19610;DHT22;9952;47.122;-1.638;2023-03-01T07:53:12;3.00;99.90
19610;DHT22;9952;47.122;-1.638;2023-03-01T07:57:52;3.40;99.90
19610;DHT22;9952;47.122;-1.638;2023-03-01T08:02:33;3.90;99.90
19610;DHT22;9952;47.122;-1.638;2023-03-01T08:07:14;4.30;99.90
19610;DHT22;9952;47.122;-1.638;2023-03-01T08:11:56;4.70;99.90
19610;DHT22;9952;47.122;-1.638;2023-03-01T08:16:39;4.50;99.90
19610;DHT22;9952;47.122;-1.638;2023-03-01T08:21:20;4.50;99.90
19610;DHT22;9952;47.122;-1.638;2023-03-01T08:26:10;4.30;99.90
19610;DHT22;9952;47.122;-1.638;2023-03-01T08:30:51;4.40;99.90
19610;DHT22;9952;47.122;-1.638;2023-03-01T08:35:31;4.60;99.90
19610;DHT22;9952;47.122;-1.638;2023-03-01T08:40:12;4.40;99.90
19610;DHT22;9952;47.122;-1.638;2023-03-01T08:44:54;4.40;99.90
19610;DHT22;9952;47.122;-1.638;2023-03-01T08:49:34;4.90;99.90
19610;DHT22;9952;47.122;-1.638;2023-03-01T08:54:18;4.90;99.90
19610;DHT22;9952;47.122;-1.638;2023-03-01T08:59:00;5.10;99.90
19610;DHT22;9952;47.122;-1.638;2023-03-01T09:03:41;5.30;99.90
19610;DHT22;9952;47.122;-1.638;2023-03-01T09:08:21;5.50;99.90
19610;DHT22;9952;47.122;-1.638;2023-03-01T09:13:04;6.00;99.90
19610;DHT22;9952;47.122;-1.638;2023-03-01T09:17:44;6.50;99.90
19610;DHT22;9952;47.122;-1.638;2023-03-01T09:22:25;6.80;99.90
19610;DHT22;9952;47.122;-1.638;2023-03-01T09:27:06;7.10;99.90
19610;DHT22;9952;47.122;-1.638;2023-03-01T09:31:49;7.50;99.90
19610;DHT22;9952;47.122;-1.638;2023-03-01T09:36:30;7.80;99.90
19610;DHT22;9952;47.122;-1.638;2023-03-01T09:46:05;7.70;99.90
19610;DHT22;9952;47.122;-1.638;2023-03-01T09:50:48;7.70;99.90
19610;DHT22;9952;47.122;-1.638;2023-03-01T09:55:45;7.50;99.90
19610;DHT22;9952;47.122;-1.638;2023-03-01T10:05:36;7.30;99.90
19610;DHT22;9952;47.122;-1.638;2023-03-01T10:10:28;7.20;99.90
19610;DHT22;9952;47.122;-1.638;2023-03-01T10:20:42;7.30;99.90
19610;DHT22;9952;47.122;-1.638;2023-03-01T10:30:40;7.40;99.90
19610;DHT22;9952;47.122;-1.638;2023-03-01T10:35:25;7.30;99.90
19610;DHT22;9952;47.122;-1.638;2023-03-01T10:40:08;7.20;99.90
19610;DHT22;9952;47.122;-1.638;2023-03-01T10:44:49;7.40;99.90
19610;DHT22;9952;47.122;-1.638;2023-03-01T10:49:30;7.50;99.90
19610;DHT22;9952;47.122;-1.638;2023-03-01T10:59:04;7.70;99.90
19610;DHT22;9952;47.122;-1.638;2023-03-01T11:08:48;7.90;99.90
19610;DHT22;9952;47.122;-1.638;2023-03-01T11:13:29;7.90;99.90
19610;DHT22;9952;47.122;-1.638;2023-03-01T11:18:21;7.70;99.90
19610;DHT22;9952;47.122;-1.638;2023-03-01T11:23:04;7.80;99.90
19610;DHT22;9952;47.122;-1.638;2023-03-01T11:27:47;8.00;99.90
19610;DHT22;9952;47.122;-1.638;2023-03-01T11:32:40;8.00;99.90
19610;DHT22;9952;47.122;-1.638;2023-03-01T11:37:38;8.00;99.90
19610;DHT22;9952;47.122;-1.638;2023-03-01T11:42:41;8.10;99.90
19610;DHT22;9952;47.122;-1.638;2023-03-01T11:48:07;8.20;99.90
19610;DHT22;9952;47.122;-1.638;2023-03-01T12:33:20;8.80;99.90
19610;DHT22;9952;47.122;-1.638;2023-03-01T12:38:29;8.90;99.90
19610;DHT22;9952;47.122;-1.638;2023-03-01T12:53:29;9.30;99.90
19610;DHT22;9952;47.122;-1.638;2023-03-01T13:13:02;9.00;99.90
19610;DHT22;9952;47.122;-1.638;2023-03-01T13:17:45;9.00;99.90
19610;DHT22;9952;47.122;-1.638;2023-03-01T13:22:31;9.30;99.90
19610;DHT22;9952;47.122;-1.638;2023-03-01T13:31:58;9.60;99.90
19610;DHT22;9952;47.122;-1.638;2023-03-01T13:36:47;9.70;99.90
19610;DHT22;9952;47.122;-1.638;2023-03-01T13:46:24;9.40;99.90
19610;DHT22;9952;47.122;-1.638;2023-03-01T13:51:08;9.40;99.90
19610;DHT22;9952;47.122;-1.638;2023-03-01T13:55:58;9.50;99.90
19610;DHT22;9952;47.122;-1.638;2023-03-01T14:00:41;9.70;99.90
19610;DHT22;9952;47.122;-1.638;2023-03-01T14:05:22;9.60;99.90
19610;DHT22;9952;47.122;-1.638;2023-03-01T14:10:05;9.50;99.90
19610;DHT22;9952;47.122;-1.638;2023-03-01T14:19:47;9.60;99.90
19610;DHT22;9952;47.122;-1.638;2023-03-01T14:24:29;9.40;99.90
19610;DHT22;9952;47.122;-1.638;2023-03-01T14:29:36;9.40;99.90
19610;DHT22;9952;47.122;-1.638;2023-03-01T14:34:22;9.30;99.90
19610;DHT22;9952;47.122;-1.638;2023-03-01T14:39:17;9.50;99.90
19610;DHT22;9952;47.122;-1.638;2023-03-01T14:43:59;9.60;99.90
19610;DHT22;9952;47.122;-1.638;2023-03-01T14:48:41;9.60;99.90
19610;DHT22;9952;47.122;-1.638;2023-03-01T14:53:24;9.60;99.90
19610;DHT22;9952;47.122;-1.638;2023-03-01T14:58:11;9.70;99.90
19610;DHT22;9952;47.122;-1.638;2023-03-01T15:02:56;9.50;99.90
19610;DHT22;9952;47.122;-1.638;2023-03-01T15:07:40;9.30;99.90
19610;DHT22;9952;47.122;-1.638;2023-03-01T15:17:30;9.30;99.90
19610;DHT22;9952;47.122;-1.638;2023-03-01T15:22:18;9.60;99.90
19610;DHT22;9952;47.122;-1.638;2023-03-01T15:26:59;9.50;99.90
19610;DHT22;9952;47.122;-1.638;2023-03-01T15:32:04;9.60;99.90
19610;DHT22;9952;47.122;-1.638;2023-03-01T15:36:46;9.50;99.90
19610;DHT22;9952;47.122;-1.638;2023-03-01T15:41:37;9.40;99.90
19610;DHT22;9952;47.122;-1.638;2023-03-01T15:46:33;9.20;99.90
19610;DHT22;9952;47.122;-1.638;2023-03-01T15:51:14;9.30;99.90
19610;DHT22;9952;47.122;-1.638;2023-03-01T15:55:57;9.30;99.90
19610;DHT22;9952;47.122;-1.638;2023-03-01T16:00:37;9.40;99.90
19610;DHT22;9952;47.122;-1.638;2023-03-01T16:05:26;9.50;99.90
19610;DHT22;9952;47.122;-1.638;2023-03-01T16:10:08;9.30;99.90
19610;DHT22;9952;47.122;-1.638;2023-03-01T16:14:48;9.20;99.90
19610;DHT22;9952;47.122;-1.638;2023-03-01T16:19:29;9.10;99.90
19610;DHT22;9952;47.122;-1.638;2023-03-01T16:24:10;9.20;99.90
19610;DHT22;9952;47.122;-1.638;2023-03-01T16:28:55;9.10;99.90
19610;DHT22;9952;47.122;-1.638;2023-03-01T16:33:37;9.20;99.90
19610;DHT22;9952;47.122;-1.638;2023-03-01T16:38:18;9.20;99.90
19610;DHT22;9952;47.122;-1.638;2023-03-01T16:42:59;8.90;99.90
19610;DHT22;9952;47.122;-1.638;2023-03-01T16:47:41;8.70;99.90
19610;DHT22;9952;47.122;-1.638;2023-03-01T16:52:22;8.60;99.90
19610;DHT22;9952;47.122;-1.638;2023-03-01T16:57:03;8.70;99.90
19610;DHT22;9952;47.122;-1.638;2023-03-01T17:01:45;8.70;99.90
19610;DHT22;9952;47.122;-1.638;2023-03-01T17:06:27;8.50;99.90
19610;DHT22;9952;47.122;-1.638;2023-03-01T17:11:15;8.40;99.90
19610;DHT22;9952;47.122;-1.638;2023-03-01T17:15:57;8.50;99.90
19610;DHT22;9952;47.122;-1.638;2023-03-01T17:20:37;8.40;99.90
19610;DHT22;9952;47.122;-1.638;2023-03-01T17:25:18;8.20;99.90
19610;DHT22;9952;47.122;-1.638;2023-03-01T17:29:59;8.10;99.90
19610;DHT22;9952;47.122;-1.638;2023-03-01T17:34:41;8.00;99.90
19610;DHT22;9952;47.122;-1.638;2023-03-01T17:39:22;8.00;99.90
19610;DHT22;9952;47.122;-1.638;2023-03-01T17:44:07;7.80;99.90
19610;DHT22;9952;47.122;-1.638;2023-03-01T17:48:48;7.70;99.90
19610;DHT22;9952;47.122;-1.638;2023-03-01T17:53:29;7.60;99.90
19610;DHT22;9952;47.122;-1.638;2023-03-01T17:58:12;7.60;99.90
19610;DHT22;9952;47.122;-1.638;2023-03-01T18:02:53;7.50;99.90
19610;DHT22;9952;47.122;-1.638;2023-03-01T18:07:34;7.40;99.90
19610;DHT22;9952;47.122;-1.638;2023-03-01T18:12:15;7.30;99.90
19610;DHT22;9952;47.122;-1.638;2023-03-01T18:16:56;7.20;99.90
19610;DHT22;9952;47.122;-1.638;2023-03-01T18:21:37;7.10;99.90
19610;DHT22;9952;47.122;-1.638;2023-03-01T18:26:18;7.10;99.90
19610;DHT22;9952;47.122;-1.638;2023-03-01T18:31:04;7.00;99.90
19610;DHT22;9952;47.122;-1.638;2023-03-01T18:35:45;6.70;99.90
19610;DHT22;9952;47.122;-1.638;2023-03-01T18:40:27;6.80;99.90
19610;DHT22;9952;47.122;-1.638;2023-03-01T18:45:08;6.70;99.90
19610;DHT22;9952;47.122;-1.638;2023-03-01T18:49:49;6.50;99.90
19610;DHT22;9952;47.122;-1.638;2023-03-01T18:54:30;6.40;99.90
19610;DHT22;9952;47.122;-1.638;2023-03-01T18:59:11;6.30;99.90
19610;DHT22;9952;47.122;-1.638;2023-03-01T19:03:53;6.30;99.90
19610;DHT22;9952;47.122;-1.638;2023-03-01T19:08:35;6.20;99.90
19610;DHT22;9952;47.122;-1.638;2023-03-01T19:13:16;6.20;99.90
19610;DHT22;9952;47.122;-1.638;2023-03-01T19:17:57;6.10;99.90
19610;DHT22;9952;47.122;-1.638;2023-03-01T19:22:38;6.00;99.90
19610;DHT22;9952;47.122;-1.638;2023-03-01T19:27:19;6.00;99.90
19610;DHT22;9952;47.122;-1.638;2023-03-01T19:31:59;6.00;99.90
19610;DHT22;9952;47.122;-1.638;2023-03-01T19:36:41;5.80;99.90
19610;DHT22;9952;47.122;-1.638;2023-03-01T19:41:22;5.80;99.90
19610;DHT22;9952;47.122;-1.638;2023-03-01T19:46:03;5.80;99.90
19610;DHT22;9952;47.122;-1.638;2023-03-01T19:50:44;5.80;99.90
19610;DHT22;9952;47.122;-1.638;2023-03-01T19:55:25;5.60;99.90
19610;DHT22;9952;47.122;-1.638;2023-03-01T20:00:06;5.40;99.90
19610;DHT22;9952;47.122;-1.638;2023-03-01T20:04:47;5.50;99.90
19610;DHT22;9952;47.122;-1.638;2023-03-01T20:09:28;5.40;99.90
19610;DHT22;9952;47.122;-1.638;2023-03-01T20:14:09;5.30;99.90
19610;DHT22;9952;47.122;-1.638;2023-03-01T20:18:52;5.30;99.90
19610;DHT22;9952;47.122;-1.638;2023-03-01T20:23:34;5.30;99.90
19610;DHT22;9952;47.122;-1.638;2023-03-01T20:28:16;5.30;99.90
19610;DHT22;9952;47.122;-1.638;2023-03-01T20:32:57;5.30;99.90
19610;DHT22;9952;47.122;-1.638;2023-03-01T20:37:38;5.30;99.90
19610;DHT22;9952;47.122;-1.638;2023-03-01T20:42:18;5.30;99.90
19610;DHT22;9952;47.122;-1.638;2023-03-01T20:46:59;5.20;99.90
19610;DHT22;9952;47.122;-1.638;2023-03-01T20:51:40;5.10;99.90
19610;DHT22;9952;47.122;-1.638;2023-03-01T20:56:22;5.00;99.90
19610;DHT22;9952;47.122;-1.638;2023-03-01T21:01:04;4.90;99.90
19610;DHT22;9952;47.122;-1.638;2023-03-01T21:05:45;4.90;99.90
19610;DHT22;9952;47.122;-1.638;2023-03-01T21:10:26;4.80;99.90
19610;DHT22;9952;47.122;-1.638;2023-03-01T21:19:53;4.60;99.90
19610;DHT22;9952;47.122;-1.638;2023-03-01T21:24:34;4.60;99.90
19610;DHT22;9952;47.122;-1.638;2023-03-01T21:29:15;4.50;99.90
19610;DHT22;9952;47.122;-1.638;2023-03-01T21:33:57;4.40;99.90
19610;DHT22;9952;47.122;-1.638;2023-03-01T21:38:40;4.30;99.90
19610;DHT22;9952;47.122;-1.638;2023-03-01T21:43:22;4.40;99.90
19610;DHT22;9952;47.122;-1.638;2023-03-01T21:48:03;4.20;99.90
19610;DHT22;9952;47.122;-1.638;2023-03-01T21:52:44;4.20;99.90
19610;DHT22;9952;47.122;-1.638;2023-03-01T21:57:25;4.10;99.90
19610;DHT22;9952;47.122;-1.638;2023-03-01T22:02:06;4.00;99.90
19610;DHT22;9952;47.122;-1.638;2023-03-01T22:06:47;3.90;99.90
19610;DHT22;9952;47.122;-1.638;2023-03-01T22:11:29;3.90;99.90
19610;DHT22;9952;47.122;-1.638;2023-03-01T22:16:10;3.80;99.90
19610;DHT22;9952;47.122;-1.638;2023-03-01T22:20:51;3.80;99.90
19610;DHT22;9952;47.122;-1.638;2023-03-01T22:25:40;3.90;99.90
19610;DHT22;9952;47.122;-1.638;2023-03-01T22:30:21;3.90;99.90
19610;DHT22;9952;47.122;-1.638;2023-03-01T22:35:20;3.80;99.90
19610;DHT22;9952;47.122;-1.638;2023-03-01T22:40:13;3.70;99.90
19610;DHT22;9952;47.122;-1.638;2023-03-01T23:01:01;3.40;99.90
19610;DHT22;9952;47.122;-1.638;2023-03-01T23:06:01;3.40;99.90
19610;DHT22;9952;47.122;-1.638;2023-03-01T23:10:41;3.30;99.90
19610;DHT22;9952;47.122;-1.638;2023-03-01T23:15:22;3.30;99.90
19610;DHT22;9952;47.122;-1.638;2023-03-01T23:20:04;3.30;99.90
19610;DHT22;9952;47.122;-1.638;2023-03-01T23:24:53;3.20;99.90
19610;DHT22;9952;47.122;-1.638;2023-03-01T23:29:34;3.10;99.90
19610;DHT22;9952;47.122;-1.638;2023-03-01T23:34:15;3.00;99.90
19610;DHT22;9952;47.122;-1.638;2023-03-01T23:38:58;2.90;99.90
19610;DHT22;9952;47.122;-1.638;2023-03-01T23:43:39;2.90;99.90
19610;DHT22;9952;47.122;-1.638;2023-03-01T23:48:24;2.80;99.90
19610;DHT22;9952;47.122;-1.638;2023-03-01T23:53:05;2.80;99.90
19610;DHT22;9952;47.122;-1.638;2023-03-01T23:57:45;2.70;99.90
